Disclaimer

Please do not use the information listed here in-flight or in-navigation, as they are not provided to us by the airports but are provided by volunteers, so they might be outdated.

Search


Regions


Airport information page

Radio informations:
Tower (TWR) - 118.6 MHz
PMSV METRO - 125.1 MHz
Ground (GND) - 121.8 MHz
Automatic Terminal Information Service (ATIS) - 114.2 MHz
Approach (APP) - 119.1 MHz

Airport informations:
Latitude: 60° 19' 02.00" N
Longitude: 024° 57' 48.00" E
Elevation: 179 feet - 55 meters
Operating hours: N/A
Operating agency: Civil government, landing fees and diplomatic clearance may be required
Timezone: UTC+2(+3DT) - Last Sunday in March to last Sunday in October
Fuel: Jet A1, without icing nhibitor.

Runway information:
04R/22L - 11286 x 197 feet< - >3440 x 60 meters
04L/22R - 10039 x 197 feet< - >3060 x 60 meters
15/33 - 9518 x 197 feet< - >2901 x 60 meters

Recent METARs:
EFHK 202220Z 34007KT 9999 OVC012 01/M01 Q1032 NOSIG
EFHK 202250Z 34007KT 9999 OVC013 01/M01 Q1032 NOSIG
EFHK 202320Z 35007KT 9999 OVC013 01/M01 Q1032 NOSIG

Airport on the map: